KSAR

Sparta Community-Hunter Field Airport

Sparta, Illinois, USA
METAR KSAR 151235Z AUTO 30003KT 3SM UP OVC006 M03/M03 A3013 RMK AO2 T10261026
Observed Flight Rules
Nov-15 @ 12:35 UTC (8 minutes ago) Instrument Flight Rules
Wind Visibility Clouds Conditions
300° at 3 knots 3 miles
  • Overcast at 600' AGL
  • Unknown precipitation
Temperatures Readings
Current -3°C / 27°F
Dewpoint -3°C / 27°F
Humidity 100%
Altimeter 30.13" Hg
Pressure 1020 hPa
Elevation 164
METAR KSAR 151235Z AUTO 30003KT 3SM UP OVC006 M03/M03 A3013 RMK AO2 T10261026
Observed Flight Rules
Nov-15 @ 12:35 UTC
(8 minutes ago)
IFR
Wind Visibility
300° at 3 knots 3 miles
Clouds
  • Overcast at 600' AGL
Conditions
  • Unknown precipitation
Temperature Dewpoint
-3°C / 27°F -3°C / 27°F
Humidity Altimeter Pressure
100% 30.13" Hg 1020 hPa